createdAt,value
2023-03-25T00:01:17.343Z,0.30
2023-03-25T00:03:50.787Z,0.77
2023-03-25T00:06:18.873Z,0.50
2023-03-25T00:08:46.395Z,0.35
2023-03-25T00:11:13.406Z,0.57
2023-03-25T00:13:40.659Z,0.22
2023-03-25T00:16:10.024Z,0.40
2023-03-25T00:18:37.551Z,0.30
2023-03-25T00:21:10.552Z,0.63
2023-03-25T00:23:39.465Z,0.47
2023-03-25T00:26:07.488Z,0.50
2023-03-25T00:28:36.910Z,0.30
2023-03-25T00:31:07.158Z,0.35
2023-03-25T00:33:35.344Z,0.43
2023-03-25T00:36:04.446Z,0.45
2023-03-25T00:38:35.174Z,0.43
2023-03-25T00:41:13.039Z,0.20
2023-03-25T00:43:40.805Z,0.30
2023-03-25T00:46:08.049Z,0.30
2023-03-25T00:48:35.264Z,0.60
2023-03-25T00:51:08.968Z,0.40
2023-03-25T00:53:37.776Z,0.32
2023-03-25T00:56:05.749Z,0.38
2023-03-25T00:58:32.920Z,0.40
2023-03-25T01:00:59.931Z,0.32
2023-03-25T01:03:29.070Z,0.50
2023-03-25T01:05:57.849Z,0.38
2023-03-25T01:08:25.230Z,0.50
2023-03-25T01:10:54.108Z,0.47
2023-03-25T01:13:22.856Z,0.60
2023-03-25T01:15:51.215Z,1.42
2023-03-25T01:18:18.532Z,0.30
2023-03-25T01:20:45.560Z,0.22
2023-03-25T01:23:13.013Z,0.50
2023-03-25T01:25:40.349Z,1.00
2023-03-25T01:28:07.351Z,0.47
2023-03-25T01:30:35.591Z,0.73
2023-03-25T01:33:02.745Z,0.13
2023-03-25T01:35:29.844Z,0.45
2023-03-25T01:37:57.071Z,0.70
2023-03-25T01:40:24.548Z,0.40
2023-03-25T01:42:51.580Z,0.32
2023-03-25T01:45:20.568Z,0.43
2023-03-25T01:47:52.806Z,0.93
2023-03-25T01:50:21.052Z,0.77
2023-03-25T01:52:51.951Z,0.70
2023-03-25T01:55:20.240Z,0.65
2023-03-25T01:57:48.297Z,0.68
2023-03-25T02:00:16.490Z,0.50
2023-03-25T02:02:43.716Z,0.65
2023-03-25T02:05:19.254Z,1.02
2023-03-25T02:07:49.027Z,0.55
2023-03-25T02:10:17.233Z,0.57
2023-03-25T02:12:45.785Z,0.60
2023-03-25T02:15:17.697Z,0.40
2023-03-25T02:18:05.805Z,0.70
2023-03-25T02:21:03.385Z,1.27
2023-03-25T02:23:58.330Z,0.50
2023-03-25T02:26:50.053Z,0.45
2023-03-25T02:29:58.996Z,0.73
2023-03-25T02:32:57.308Z,1.38
2023-03-25T02:35:24.312Z,0.65
2023-03-25T02:38:07.461Z,0.63
2023-03-25T02:40:52.149Z,1.75
2023-03-25T02:43:52.321Z,0.50
2023-03-25T02:46:20.828Z,0.52
2023-03-25T02:48:51.240Z,0.75
2023-03-25T02:51:27.250Z,0.52
2023-03-25T02:53:58.396Z,0.88
2023-03-25T02:56:29.369Z,0.40
2023-03-25T02:58:57.409Z,0.45
2023-03-25T03:01:26.718Z,0.55
2023-03-25T03:03:56.411Z,0.60
2023-03-25T03:06:25.257Z,0.90
2023-03-25T03:09:17.431Z,1.25
2023-03-25T03:11:47.125Z,0.60
2023-03-25T03:14:32.795Z,0.98
2023-03-25T03:17:19.983Z,0.57
2023-03-25T03:19:54.634Z,0.65
2023-03-25T03:22:37.219Z,0.73
2023-03-25T03:25:16.016Z,0.85
2023-03-25T03:27:50.070Z,0.50
2023-03-25T03:30:49.320Z,0.70
2023-03-25T03:33:30.536Z,0.43
2023-03-25T03:36:02.056Z,0.50
2023-03-25T03:38:35.557Z,0.40
2023-03-25T03:41:08.095Z,0.60
2023-03-25T03:46:48.350Z,0.82
2023-03-25T03:49:19.947Z,0.82
2023-03-25T03:51:52.623Z,0.50
2023-03-25T03:54:28.056Z,1.05
2023-03-25T03:57:02.465Z,0.82
2023-03-25T03:59:57.646Z,0.52
2023-03-25T04:02:38.400Z,0.32
2023-03-25T04:05:12.027Z,1.02
2023-03-25T04:07:44.187Z,0.75
2023-03-25T04:10:21.529Z,0.65
2023-03-25T04:12:52.773Z,0.70
2023-03-25T04:15:20.281Z,0.65
2023-03-25T04:17:48.153Z,1.13
2023-03-25T04:20:23.566Z,0.60
2023-03-25T04:22:52.214Z,1.80
2023-03-25T04:25:22.066Z,0.77
2023-03-25T04:27:49.251Z,0.95
2023-03-25T04:30:19.811Z,0.60
2023-03-25T04:32:47.284Z,1.05
2023-03-25T04:35:16.994Z,0.70
2023-03-25T04:37:48.943Z,0.50
2023-03-25T04:40:18.658Z,0.60
2023-03-25T04:42:46.688Z,0.90
2023-03-25T04:45:16.904Z,0.70
2023-03-25T04:47:49.094Z,0.63
2023-03-25T04:50:22.395Z,0.65
2023-03-25T04:52:51.009Z,0.60
2023-03-25T04:55:19.528Z,0.88
2023-03-25T04:57:48.054Z,0.50
2023-03-25T05:00:18.077Z,0.82
2023-03-25T05:02:54.298Z,0.60
2023-03-25T05:05:23.891Z,0.60
2023-03-25T05:07:53.963Z,0.73
2023-03-25T05:10:24.199Z,0.52
2023-03-25T05:12:57.653Z,0.45
2023-03-25T05:15:24.815Z,1.23
2023-03-25T05:17:52.313Z,0.93
2023-03-25T05:20:19.627Z,0.60
2023-03-25T05:22:46.651Z,0.47
2023-03-25T05:25:13.800Z,0.68
2023-03-25T05:27:40.865Z,0.43
2023-03-25T05:30:08.567Z,0.95
2023-03-25T05:32:35.616Z,0.73
2023-03-25T05:35:03.490Z,0.75
2023-03-25T05:37:30.863Z,0.65
2023-03-25T05:39:58.096Z,1.17
2023-03-25T05:42:25.253Z,0.60
2023-03-25T05:44:53.617Z,0.70
2023-03-25T05:47:25.202Z,0.50
2023-03-25T05:49:53.987Z,0.90
2023-03-25T05:52:24.417Z,0.60
2023-03-25T05:54:51.958Z,0.82
2023-03-25T05:57:19.022Z,0.40
2023-03-25T05:59:46.153Z,0.90
2023-03-25T06:02:15.749Z,0.88
2023-03-25T06:04:44.076Z,0.40
2023-03-25T06:07:13.992Z,0.20
2023-03-25T06:09:46.121Z,0.57
2023-03-25T06:12:19.686Z,0.60
2023-03-25T06:14:47.651Z,0.50
2023-03-25T06:17:18.833Z,0.60
2023-03-25T06:19:45.867Z,0.88
2023-03-25T06:22:12.881Z,0.40
2023-03-25T06:24:41.318Z,0.30
2023-03-25T06:27:13.858Z,0.77
2023-03-25T06:32:13.689Z,0.60
2023-03-25T06:34:42.696Z,0.22
2023-03-25T06:37:10.636Z,0.43
2023-03-25T06:39:37.786Z,0.90
2023-03-25T06:42:12.841Z,0.98
2023-03-25T06:45:04.954Z,0.68
2023-03-25T06:47:44.417Z,0.77
2023-03-25T06:50:11.550Z,1.60
2023-03-25T06:52:38.638Z,1.15
2023-03-25T06:55:06.182Z,0.90
2023-03-25T06:57:33.210Z,0.88
2023-03-25T07:00:00.275Z,2.00
2023-03-25T07:02:27.367Z,0.80
2023-03-25T07:04:54.534Z,0.93
2023-03-25T07:07:21.662Z,0.63
2023-03-25T07:09:54.976Z,0.60
2023-03-25T07:12:23.190Z,0.98
2023-03-25T07:14:54.911Z,1.25
2023-03-25T07:17:22.620Z,1.63
2023-03-25T07:19:50.224Z,2.20
2023-03-25T07:22:17.331Z,0.90
2023-03-25T07:24:44.403Z,0.90
2023-03-25T07:27:12.467Z,1.33
2023-03-25T07:29:40.338Z,0.80
2023-03-25T07:32:07.438Z,0.65
2023-03-25T07:34:34.482Z,0.70
2023-03-25T07:37:01.611Z,0.60
2023-03-25T07:39:28.710Z,0.60
2023-03-25T07:41:55.726Z,0.60
2023-03-25T07:44:51.951Z,0.60
2023-03-25T07:47:19.062Z,0.50
2023-03-25T07:49:47.670Z,0.73
2023-03-25T07:52:14.693Z,0.40
2023-03-25T07:54:41.848Z,0.70
2023-03-25T07:57:08.930Z,0.50
2023-03-25T07:59:36.004Z,0.80
2023-03-25T08:02:03.230Z,0.60
2023-03-25T08:04:30.506Z,1.00
2023-03-25T08:06:57.707Z,0.65
2023-03-25T08:09:24.848Z,0.73
2023-03-25T08:11:51.979Z,0.85
2023-03-25T08:14:19.069Z,0.68
2023-03-25T08:16:46.761Z,0.60
2023-03-25T08:19:14.448Z,1.02
2023-03-25T08:21:41.657Z,0.63
2023-03-25T08:24:08.866Z,0.63
2023-03-25T08:26:36.035Z,0.68
2023-03-25T08:29:04.001Z,1.23
2023-03-25T08:31:32.358Z,0.65
2023-03-25T08:34:05.259Z,0.30
2023-03-25T08:36:32.432Z,0.80
2023-03-25T08:38:59.500Z,0.40
2023-03-25T08:41:26.667Z,0.30
2023-03-25T08:43:53.797Z,0.30
2023-03-25T08:46:20.936Z,0.30
2023-03-25T08:48:50.113Z,0.30
2023-03-25T08:51:17.708Z,0.30
2023-03-25T08:53:44.890Z,0.28
2023-03-25T08:56:11.989Z,0.55
2023-03-25T08:58:39.551Z,0.40
2023-03-25T09:01:07.178Z,0.10
2023-03-25T09:03:34.326Z,0.45
2023-03-25T09:06:05.710Z,0.30
2023-03-25T09:08:33.186Z,0.30
2023-03-25T09:11:00.406Z,0.22
2023-03-25T09:13:27.430Z,0.50
2023-03-25T09:15:54.875Z,0.50
2023-03-25T09:18:22.124Z,0.93
2023-03-25T09:20:49.570Z,0.40
2023-03-25T09:23:16.611Z,0.70
2023-03-25T09:25:44.431Z,0.40
2023-03-25T09:28:11.505Z,1.00
2023-03-25T09:30:38.687Z,0.63
2023-03-25T09:33:06.849Z,0.40
2023-03-25T09:35:34.154Z,0.22
2023-03-25T09:38:01.276Z,0.60
2023-03-25T09:40:28.473Z,0.50
2023-03-25T09:42:58.678Z,0.70
2023-03-25T09:45:36.717Z,0.73
2023-03-25T09:48:15.911Z,1.15
2023-03-25T09:50:45.373Z,0.55
2023-03-25T09:53:40.813Z,0.68
2023-03-25T09:56:14.190Z,0.40
2023-03-25T09:58:44.751Z,0.40
2023-03-25T10:01:20.050Z,0.63
2023-03-25T10:04:24.754Z,0.63
2023-03-25T10:07:29.257Z,0.40
2023-03-25T10:10:18.330Z,0.60
2023-03-25T10:13:10.421Z,0.50
2023-03-25T10:16:02.000Z,0.47
2023-03-25T10:18:48.119Z,0.60
2023-03-25T10:21:39.948Z,0.80
2023-03-25T10:24:07.094Z,0.77
2023-03-25T10:26:44.032Z,0.65
2023-03-25T10:29:15.822Z,0.80
2023-03-25T10:31:56.641Z,0.83
2023-03-25T10:34:35.022Z,0.82
2023-03-25T10:37:10.217Z,1.17
2023-03-25T10:39:45.243Z,0.40
2023-03-25T10:42:31.488Z,0.75
2023-03-25T10:44:58.694Z,1.38
2023-03-25T10:47:30.712Z,0.93
2023-03-25T10:49:59.386Z,1.65
2023-03-25T10:52:26.631Z,0.90
2023-03-25T10:54:56.097Z,0.88
2023-03-25T10:57:29.497Z,1.45
2023-03-25T11:00:16.818Z,1.85
2023-03-25T11:02:45.463Z,0.80
2023-03-25T11:05:19.095Z,0.88
2023-03-25T11:08:08.726Z,1.75
2023-03-25T11:10:48.461Z,0.80
2023-03-25T11:13:17.209Z,0.73
2023-03-25T11:15:44.412Z,0.50
2023-03-25T11:18:18.227Z,0.77
2023-03-25T11:20:51.448Z,0.80
2023-03-25T11:23:27.424Z,0.80
2023-03-25T11:25:55.658Z,1.02
2023-03-25T11:28:38.626Z,0.90
2023-03-25T11:31:16.256Z,1.45
2023-03-25T11:34:05.827Z,0.98
2023-03-25T11:36:37.650Z,0.90
2023-03-25T11:39:18.567Z,0.98
2023-03-25T11:41:46.061Z,1.10
2023-03-25T11:44:39.524Z,0.75
2023-03-25T11:47:10.639Z,1.98
2023-03-25T11:49:41.204Z,0.80
2023-03-25T11:52:14.834Z,0.68
2023-03-25T11:54:42.918Z,0.90
2023-03-25T11:57:16.144Z,1.13
2023-03-25T11:59:47.829Z,1.17
2023-03-25T12:02:24.470Z,1.17
2023-03-25T12:04:57.672Z,1.23
2023-03-25T12:07:24.772Z,1.65
2023-03-25T12:09:58.218Z,1.45
2023-03-25T12:12:43.219Z,0.82
2023-03-25T12:15:41.353Z,2.00
2023-03-25T12:18:43.484Z,0.90
2023-03-25T12:21:19.184Z,1.80
2023-03-25T12:24:09.238Z,0.80
2023-03-25T12:26:47.716Z,1.10
2023-03-25T12:29:26.705Z,1.10
2023-03-25T12:32:09.125Z,0.98
2023-03-25T12:35:19.974Z,1.00
2023-03-25T12:38:10.457Z,0.80
2023-03-25T12:41:04.131Z,0.65
2023-03-25T12:43:50.597Z,0.90
2023-03-25T12:46:55.905Z,1.20
2023-03-25T12:49:29.098Z,0.65
2023-03-25T12:52:23.843Z,1.10
2023-03-25T12:55:06.458Z,1.05
2023-03-25T12:57:45.502Z,2.25
2023-03-25T13:00:14.515Z,0.90
2023-03-25T13:02:52.803Z,0.57
2023-03-25T13:05:30.941Z,1.23
2023-03-25T13:08:04.109Z,0.55
2023-03-25T13:10:36.405Z,0.77
2023-03-25T13:13:09.423Z,0.70
2023-03-25T13:15:42.610Z,1.27
2023-03-25T13:18:24.869Z,1.02
2023-03-25T13:21:03.480Z,0.80
2023-03-25T13:23:35.196Z,1.02
2023-03-25T13:26:17.082Z,0.95
2023-03-25T13:28:48.554Z,0.75
2023-03-25T13:31:37.395Z,1.02
2023-03-25T13:34:23.070Z,0.95
2023-03-25T13:36:59.737Z,1.00
2023-03-25T13:39:41.668Z,0.60
2023-03-25T13:42:26.623Z,1.00
2023-03-25T13:44:57.987Z,0.93
2023-03-25T13:47:41.595Z,0.90
2023-03-25T13:50:28.214Z,1.00
2023-03-25T13:53:12.851Z,1.17
2023-03-25T13:58:59.872Z,0.73
2023-03-25T14:01:48.443Z,0.93
2023-03-25T14:04:53.054Z,1.15
2023-03-25T14:07:54.049Z,1.10
2023-03-25T14:10:24.066Z,2.10
2023-03-25T14:12:56.367Z,1.48
2023-03-25T14:15:32.612Z,1.25
2023-03-25T14:23:44.898Z,0.70
2023-03-25T14:27:03.385Z,1.02
2023-03-25T14:30:13.060Z,1.17
2023-03-25T14:34:10.870Z,0.82
2023-03-25T14:37:13.427Z,1.08
2023-03-25T14:39:49.346Z,1.07
2023-03-25T14:42:28.794Z,1.20
2023-03-25T14:45:42.319Z,0.82
2023-03-25T14:48:26.030Z,0.70
2023-03-25T14:51:29.652Z,1.83
2023-03-25T14:54:02.965Z,0.98
2023-03-25T14:56:42.612Z,0.75
2023-03-25T14:59:15.594Z,1.45
2023-03-25T15:01:45.484Z,1.08
2023-03-25T15:04:38.498Z,1.45
2023-03-25T15:07:11.803Z,0.80
2023-03-25T15:09:50.873Z,0.90
2023-03-25T15:12:23.913Z,1.52
2023-03-25T15:14:56.776Z,0.65
2023-03-25T15:17:44.622Z,0.80
2023-03-25T15:20:23.517Z,1.20
2023-03-25T15:23:18.475Z,1.17
2023-03-25T15:25:48.402Z,1.25
2023-03-25T15:28:27.676Z,1.38
2023-03-25T15:31:23.380Z,0.98
2023-03-25T15:34:18.077Z,0.90
2023-03-25T15:37:17.450Z,0.88
2023-03-25T15:40:00.837Z,1.80
2023-03-25T15:43:02.148Z,0.60
2023-03-25T15:45:40.247Z,0.80
2023-03-25T15:48:22.066Z,1.13
2023-03-25T15:50:49.779Z,1.40
2023-03-25T15:53:42.379Z,1.45
2023-03-25T15:58:57.882Z,1.75
2023-03-25T16:01:30.041Z,1.38
2023-03-25T16:04:03.725Z,1.00
2023-03-25T16:06:34.404Z,1.30
2023-03-25T16:09:02.875Z,1.50
2023-03-25T16:11:29.984Z,1.80
2023-03-25T16:14:11.501Z,1.23
2023-03-25T16:16:44.241Z,2.03
2023-03-25T16:19:19.357Z,1.73
2023-03-25T16:21:51.796Z,1.17
2023-03-25T16:26:49.099Z,1.02
2023-03-25T16:29:22.796Z,1.23
2023-03-25T16:32:04.042Z,1.83
2023-03-25T16:34:40.393Z,1.10
2023-03-25T16:37:07.850Z,1.30
2023-03-25T16:39:36.748Z,2.05
2023-03-25T16:42:11.724Z,1.42
2023-03-25T16:44:38.970Z,1.20
2023-03-25T16:47:06.513Z,1.67
2023-03-25T16:49:39.735Z,2.30
2023-03-25T16:52:14.177Z,2.47
2023-03-25T16:55:06.124Z,1.48
2023-03-25T16:57:37.370Z,1.85
2023-03-25T17:00:18.822Z,2.33
2023-03-25T17:02:49.655Z,1.15
2023-03-25T17:05:26.507Z,2.15
2023-03-25T17:08:05.019Z,3.35
2023-03-25T17:10:47.509Z,1.60
2023-03-25T17:13:22.834Z,2.58
2023-03-25T17:15:51.584Z,1.52
2023-03-25T17:18:22.441Z,2.88
2023-03-25T17:20:50.506Z,1.70
2023-03-25T17:23:27.326Z,3.00
2023-03-25T17:26:00.452Z,2.20
2023-03-25T17:28:58.306Z,1.70
2023-03-25T17:31:38.875Z,1.98
2023-03-25T17:34:07.409Z,2.45
2023-03-25T17:36:37.825Z,2.25
2023-03-25T17:39:16.205Z,4.45
2023-03-25T17:41:43.565Z,3.00
2023-03-25T17:44:17.312Z,3.22
2023-03-25T17:46:44.878Z,3.53
2023-03-25T17:49:19.542Z,2.42
2023-03-25T17:51:46.884Z,2.63
2023-03-25T17:54:14.664Z,1.88
2023-03-25T17:56:42.627Z,3.13
2023-03-25T17:59:19.196Z,2.20
2023-03-25T18:01:47.587Z,1.67
2023-03-25T18:04:15.456Z,2.60
2023-03-25T18:06:43.696Z,1.10
2023-03-25T18:09:23.809Z,2.30
2023-03-25T18:11:53.902Z,1.75
2023-03-25T18:14:22.070Z,1.40
2023-03-25T18:16:50.803Z,2.10
2023-03-25T18:19:21.631Z,3.25
2023-03-25T18:21:49.154Z,2.28
2023-03-25T18:24:16.367Z,2.40
2023-03-25T18:26:44.654Z,1.80
2023-03-25T18:29:18.268Z,2.05
2023-03-25T18:31:46.493Z,2.40
2023-03-25T18:34:15.435Z,2.00
2023-03-25T18:36:43.767Z,2.03
2023-03-25T18:39:16.729Z,2.50
2023-03-25T18:41:44.440Z,2.88
2023-03-25T18:44:12.089Z,2.33
2023-03-25T18:46:39.769Z,2.28
2023-03-25T18:49:16.149Z,2.55
2023-03-25T18:51:43.574Z,3.63
2023-03-25T18:54:11.010Z,2.55
2023-03-25T18:56:41.387Z,2.45
2023-03-25T18:59:11.253Z,2.65
2023-03-25T19:01:38.681Z,1.38
2023-03-25T19:04:06.001Z,0.88
2023-03-25T19:06:33.991Z,1.00
2023-03-25T19:09:01.074Z,1.08
2023-03-25T19:11:30.472Z,0.90
2023-03-25T19:13:59.903Z,0.75
2023-03-25T19:16:29.592Z,0.98
2023-03-25T19:18:56.644Z,0.82
2023-03-25T19:21:23.688Z,1.00
2023-03-25T19:23:52.063Z,1.20
2023-03-25T19:26:19.179Z,1.25
2023-03-25T19:28:46.464Z,1.00
2023-03-25T19:31:17.034Z,1.20
2023-03-25T19:33:44.357Z,1.00
2023-03-25T19:36:16.340Z,1.23
2023-03-25T19:38:43.424Z,1.75
2023-03-25T19:41:13.419Z,1.10
2023-03-25T19:43:41.093Z,1.23
2023-03-25T19:46:08.403Z,0.82
2023-03-25T19:48:36.028Z,0.73
2023-03-25T19:51:03.924Z,0.85
2023-03-25T19:53:31.123Z,0.63
2023-03-25T19:56:02.736Z,0.47
2023-03-25T19:58:29.839Z,0.50
2023-03-25T20:00:57.061Z,1.33
2023-03-25T20:03:24.307Z,1.08
2023-03-25T20:05:59.902Z,0.68
2023-03-25T20:08:29.160Z,0.50
2023-03-25T20:10:56.677Z,0.60
2023-03-25T20:13:23.867Z,0.95
2023-03-25T20:15:51.865Z,0.70
2023-03-25T20:18:19.892Z,1.15
2023-03-25T20:20:47.050Z,1.73
2023-03-25T20:23:14.243Z,0.70
2023-03-25T20:25:41.571Z,0.77
2023-03-25T20:28:09.063Z,1.02
2023-03-25T20:30:36.350Z,0.70
2023-03-25T20:33:03.940Z,0.85
2023-03-25T20:35:31.696Z,0.80
2023-03-25T20:37:59.256Z,1.52
2023-03-25T20:40:37.487Z,1.08
2023-03-25T20:43:13.629Z,1.20
2023-03-25T20:45:40.928Z,2.13
2023-03-25T20:48:08.760Z,1.13
2023-03-25T20:50:36.115Z,1.00
2023-03-25T20:53:04.134Z,0.80
2023-03-25T20:55:31.567Z,1.55
2023-03-25T20:57:58.639Z,1.48
2023-03-25T21:00:25.753Z,1.20
2023-03-25T21:02:54.155Z,1.73
2023-03-25T21:05:21.585Z,1.25
2023-03-25T21:07:48.666Z,2.67
2023-03-25T21:10:16.312Z,1.15
2023-03-25T21:12:44.873Z,1.92
2023-03-25T21:15:14.886Z,1.52
2023-03-25T21:17:42.740Z,1.77
2023-03-25T21:20:10.811Z,1.52
2023-03-25T21:22:44.444Z,2.28
2023-03-25T21:25:17.973Z,1.92
2023-03-25T21:27:46.602Z,2.38
2023-03-25T21:30:14.816Z,1.55
2023-03-25T21:32:42.241Z,1.60
2023-03-25T21:35:09.968Z,1.73
2023-03-25T21:37:38.708Z,1.50
2023-03-25T21:40:08.168Z,1.92
2023-03-25T21:42:38.150Z,2.17
2023-03-25T21:45:07.347Z,2.22
2023-03-25T21:47:35.795Z,2.42
2023-03-25T21:50:09.267Z,1.90
2023-03-25T21:52:37.284Z,1.70
2023-03-25T21:55:05.406Z,1.65
2023-03-25T21:57:37.581Z,1.77
2023-03-25T22:00:09.887Z,2.42
2023-03-25T22:02:39.622Z,1.67
2023-03-25T22:05:07.448Z,2.40
2023-03-25T22:07:34.431Z,1.83
2023-03-25T22:10:01.592Z,2.15
2023-03-25T22:12:29.889Z,2.47
2023-03-25T22:14:57.293Z,1.90
2023-03-25T22:17:25.102Z,2.25
2023-03-25T22:19:52.231Z,1.75
2023-03-25T22:22:21.434Z,2.00
2023-03-25T22:24:49.383Z,2.15
2023-03-25T22:27:16.665Z,2.22
2023-03-25T22:29:44.165Z,2.22
2023-03-25T22:32:11.200Z,2.33
2023-03-25T22:34:39.417Z,2.83
2023-03-25T22:37:06.768Z,2.60
2023-03-25T22:39:33.853Z,4.38
2023-03-25T22:42:01.131Z,2.72
2023-03-25T22:44:28.191Z,1.65
2023-03-25T22:46:55.468Z,2.03
2023-03-25T22:49:22.555Z,2.55
2023-03-25T22:51:49.902Z,2.83
2023-03-25T22:54:17.121Z,2.97
2023-03-25T22:56:44.362Z,1.58
2023-03-25T22:59:12.806Z,3.25
2023-03-25T23:01:41.570Z,2.67
2023-03-25T23:04:09.279Z,2.03
2023-03-25T23:06:37.293Z,3.25
2023-03-25T23:09:06.554Z,2.13
2023-03-25T23:11:35.067Z,1.83
2023-03-25T23:14:07.339Z,2.05
2023-03-25T23:16:35.434Z,1.88
2023-03-25T23:19:05.764Z,3.17
2023-03-25T23:21:33.424Z,2.80
2023-03-25T23:24:03.712Z,2.58
2023-03-25T23:26:37.012Z,2.92
2023-03-25T23:29:08.659Z,2.95
2023-03-25T23:31:36.971Z,1.73
2023-03-25T23:34:07.038Z,2.83
2023-03-25T23:36:39.233Z,2.45
2023-03-25T23:39:09.069Z,2.58
2023-03-25T23:41:36.381Z,3.78
2023-03-25T23:44:04.568Z,2.33
2023-03-25T23:46:31.857Z,2.30
2023-03-25T23:49:02.412Z,2.17
2023-03-25T23:51:33.179Z,2.03
2023-03-25T23:54:01.140Z,2.05
2023-03-25T23:56:29.181Z,2.47
2023-03-25T23:59:00.052Z,2.58
